createdAt,value
2023-07-24T00:01:41.440Z,61.30
2023-07-24T00:04:09.344Z,61.20
2023-07-24T00:06:37.225Z,61.20
2023-07-24T00:09:05.201Z,61.30
2023-07-24T00:11:34.455Z,61.30
2023-07-24T00:14:02.411Z,61.30
2023-07-24T00:16:30.522Z,61.40
2023-07-24T00:18:58.556Z,61.50
2023-07-24T00:21:26.478Z,61.50
2023-07-24T00:23:54.373Z,61.60
2023-07-24T00:26:22.290Z,61.60
2023-07-24T00:28:51.552Z,61.60
2023-07-24T00:31:19.517Z,61.50
2023-07-24T00:33:47.484Z,61.50
2023-07-24T00:36:15.374Z,61.50
2023-07-24T00:38:43.299Z,61.50
2023-07-24T00:41:11.221Z,61.60
2023-07-24T00:43:39.083Z,61.60
2023-07-24T00:46:08.413Z,61.50
2023-07-24T00:48:36.461Z,61.50
2023-07-24T00:51:04.518Z,61.50
2023-07-24T00:53:32.468Z,61.50
2023-07-24T00:56:00.383Z,61.40
2023-07-24T00:58:28.391Z,61.40
2023-07-24T01:00:56.425Z,61.50
2023-07-24T01:03:27.538Z,61.40
2023-07-24T01:05:56.984Z,61.60
2023-07-24T01:08:24.969Z,61.50
2023-07-24T01:10:52.891Z,61.50
2023-07-24T01:13:24.523Z,61.40
2023-07-24T01:15:54.646Z,61.40
2023-07-24T01:18:24.611Z,61.40
2023-07-24T01:20:57.528Z,61.40
2023-07-24T01:23:32.344Z,61.50
2023-07-24T01:26:03.536Z,61.40
2023-07-24T01:28:31.506Z,61.30
2023-07-24T01:30:59.512Z,61.30
2023-07-24T01:33:27.521Z,61.30
2023-07-24T01:35:57.013Z,61.30
2023-07-24T01:38:25.672Z,61.30
2023-07-24T01:40:53.925Z,61.20
2023-07-24T01:43:23.884Z,61.30
2023-07-24T01:45:51.852Z,61.20
2023-07-24T01:48:19.784Z,61.20
2023-07-24T01:50:47.716Z,61.20
2023-07-24T01:53:15.902Z,61.20
2023-07-24T01:55:43.929Z,61.20
2023-07-24T01:58:11.809Z,61.20
2023-07-24T02:00:41.063Z,61.20
2023-07-24T02:03:09.012Z,61.20
2023-07-24T02:05:37.024Z,61.10
2023-07-24T02:08:05.090Z,61.20
2023-07-24T02:10:33.005Z,61.10
2023-07-24T02:13:00.881Z,61.10
2023-07-24T02:15:29.003Z,61.00
2023-07-24T02:17:58.311Z,61.00
2023-07-24T02:20:26.252Z,61.10
2023-07-24T02:22:54.153Z,61.00
2023-07-24T02:25:22.043Z,61.00
2023-07-24T02:27:49.951Z,61.00
2023-07-24T02:30:17.934Z,61.00
2023-07-24T02:32:45.909Z,61.00
2023-07-24T02:35:15.181Z,60.90
2023-07-24T02:37:43.082Z,60.90
2023-07-24T02:40:11.510Z,60.90
2023-07-24T02:42:39.417Z,60.90
2023-07-24T02:45:11.839Z,61.00
2023-07-24T02:47:39.921Z,60.90
2023-07-24T02:50:08.421Z,60.90
2023-07-24T02:52:37.667Z,61.00
2023-07-24T02:55:05.954Z,60.90
2023-07-24T02:57:33.886Z,60.90
2023-07-24T03:00:01.762Z,61.00
2023-07-24T03:02:29.788Z,61.00
2023-07-24T03:04:57.842Z,61.00
2023-07-24T03:07:25.744Z,61.00
2023-07-24T03:09:55.027Z,60.90
2023-07-24T03:12:22.907Z,61.00
2023-07-24T03:14:50.869Z,61.00
2023-07-24T03:17:18.769Z,61.00
2023-07-24T03:19:46.767Z,61.60
2023-07-24T03:22:14.645Z,61.00
2023-07-24T03:24:42.608Z,61.00
2023-07-24T03:27:11.857Z,61.00
2023-07-24T03:29:40.499Z,61.10
2023-07-24T03:32:08.898Z,61.00
2023-07-24T03:34:36.824Z,61.00
2023-07-24T03:37:04.934Z,60.90
2023-07-24T03:39:32.852Z,61.00
2023-07-24T03:42:00.725Z,60.90
2023-07-24T03:44:30.049Z,60.90
2023-07-24T03:46:58.002Z,61.20
2023-07-24T03:49:25.933Z,63.60
2023-07-24T03:51:53.846Z,63.70
2023-07-24T03:54:21.755Z,63.90
2023-07-24T03:56:49.719Z,63.90
2023-07-24T03:59:17.638Z,63.80
2023-07-24T04:01:46.963Z,63.80
2023-07-24T04:04:14.846Z,63.80
2023-07-24T04:06:42.748Z,63.70
2023-07-24T04:09:11.946Z,63.50
2023-07-24T04:11:40.526Z,63.40
2023-07-24T04:14:08.467Z,63.30
2023-07-24T04:16:36.736Z,63.20
2023-07-24T04:19:06.622Z,63.10
2023-07-24T04:21:34.547Z,63.10
2023-07-24T04:24:02.433Z,63.10
2023-07-24T04:26:30.538Z,63.10
2023-07-24T04:28:58.715Z,63.00
2023-07-24T04:31:26.696Z,62.90
2023-07-24T04:33:54.617Z,62.80
2023-07-24T04:36:23.859Z,62.70
2023-07-24T04:38:51.756Z,64.20
2023-07-24T04:41:19.635Z,65.30
2023-07-24T04:43:47.546Z,65.10
2023-07-24T04:46:15.473Z,65.70
2023-07-24T04:48:43.409Z,66.10
2023-07-24T04:51:11.316Z,66.50
2023-07-24T04:53:40.606Z,66.80
2023-07-24T04:56:08.462Z,67.00
2023-07-24T04:58:36.360Z,66.50
2023-07-24T05:01:05.006Z,66.20
2023-07-24T05:03:32.952Z,66.10
2023-07-24T05:06:00.882Z,66.10
2023-07-24T05:08:28.781Z,66.10
2023-07-24T05:10:58.459Z,66.00
2023-07-24T05:13:26.407Z,65.80
2023-07-24T05:15:54.421Z,65.80
2023-07-24T05:18:22.328Z,65.70
2023-07-24T05:20:52.531Z,65.60
2023-07-24T05:23:20.879Z,65.50
2023-07-24T05:25:48.780Z,65.50
2023-07-24T05:28:18.032Z,65.40
2023-07-24T05:30:45.929Z,65.40
2023-07-24T05:33:13.806Z,65.70
2023-07-24T05:35:41.724Z,66.20
2023-07-24T05:38:09.596Z,66.30
2023-07-24T05:40:37.593Z,67.20
2023-07-24T05:43:05.522Z,66.80
2023-07-24T05:45:34.801Z,66.80
2023-07-24T05:48:02.715Z,66.70
2023-07-24T05:50:30.685Z,66.40
2023-07-24T05:52:58.585Z,66.30
2023-07-24T05:55:26.466Z,66.10
2023-07-24T05:57:54.369Z,65.80
2023-07-24T06:00:22.339Z,65.80
2023-07-24T06:02:51.702Z,65.70
2023-07-24T06:05:20.863Z,65.90
2023-07-24T06:07:48.937Z,66.00
2023-07-24T06:10:16.928Z,66.30
2023-07-24T06:12:44.881Z,66.40
2023-07-24T06:15:12.777Z,66.60
2023-07-24T06:17:40.791Z,66.90
2023-07-24T06:20:10.670Z,67.20
2023-07-24T06:22:38.560Z,67.70
2023-07-24T06:25:06.848Z,69.00
2023-07-24T06:27:34.807Z,69.30
2023-07-24T06:30:14.308Z,68.30
2023-07-24T06:32:43.464Z,67.70
2023-07-24T06:35:12.769Z,67.20
2023-07-24T06:37:40.633Z,66.70
2023-07-24T06:40:09.172Z,66.40
2023-07-24T06:42:37.070Z,66.40
2023-07-24T06:45:08.196Z,66.50
2023-07-24T06:47:36.503Z,66.50
2023-07-24T06:50:05.702Z,66.50
2023-07-24T06:52:35.244Z,66.30
2023-07-24T06:55:03.279Z,66.00
2023-07-24T06:57:31.198Z,65.70
2023-07-24T06:59:59.136Z,65.60
2023-07-24T07:02:27.077Z,65.50
2023-07-24T07:04:55.019Z,65.40
2023-07-24T07:07:22.920Z,65.10
2023-07-24T07:09:52.191Z,64.40
2023-07-24T07:12:22.225Z,63.10
2023-07-24T07:14:50.400Z,61.90
2023-07-24T07:17:18.377Z,61.50
2023-07-24T07:19:46.251Z,60.80
2023-07-24T07:22:14.189Z,60.50
2023-07-24T07:24:42.101Z,59.20
2023-07-24T07:27:11.379Z,56.90
2023-07-24T07:29:39.316Z,56.90
2023-07-24T07:32:07.901Z,56.90
2023-07-24T07:34:35.937Z,57.10
2023-07-24T07:37:03.868Z,56.90
2023-07-24T07:39:31.740Z,56.70
2023-07-24T07:42:12.385Z,56.60
2023-07-24T07:44:47.302Z,56.30
2023-07-24T07:47:15.304Z,55.40
2023-07-24T07:49:43.530Z,54.30
2023-07-24T07:52:11.444Z,54.10
2023-07-24T07:54:39.343Z,53.60
2023-07-24T07:57:07.295Z,53.30
2023-07-24T07:59:36.270Z,52.30
2023-07-24T08:02:05.854Z,51.50
2023-07-24T08:04:33.821Z,51.70
2023-07-24T08:07:01.790Z,51.70
2023-07-24T08:09:30.077Z,52.00
2023-07-24T08:11:57.955Z,52.50
2023-07-24T08:14:25.872Z,53.00
2023-07-24T08:16:54.413Z,53.60
2023-07-24T08:19:23.939Z,52.80
2023-07-24T08:21:51.835Z,52.90
2023-07-24T08:24:19.768Z,52.50
2023-07-24T08:26:47.700Z,52.80
2023-07-24T08:29:15.631Z,53.30
2023-07-24T08:31:43.634Z,53.90
2023-07-24T08:34:11.596Z,54.20
2023-07-24T08:36:40.856Z,54.40
2023-07-24T08:39:08.726Z,54.50
2023-07-24T08:41:38.498Z,55.00
2023-07-24T08:44:07.364Z,55.20
2023-07-24T08:46:37.549Z,55.30
2023-07-24T08:49:05.817Z,55.20
2023-07-24T08:51:33.901Z,55.40
2023-07-24T08:54:03.599Z,56.00
2023-07-24T08:56:31.786Z,56.20
2023-07-24T08:58:59.971Z,56.00
2023-07-24T09:01:27.911Z,55.80
2023-07-24T09:03:55.861Z,56.00
2023-07-24T09:06:23.808Z,56.50
2023-07-24T09:08:55.724Z,56.60
2023-07-24T09:11:25.013Z,56.50
2023-07-24T09:13:55.413Z,55.80
2023-07-24T09:16:24.468Z,55.50
2023-07-24T09:21:31.334Z,54.50
2023-07-24T09:24:00.314Z,54.70
2023-07-24T09:26:29.791Z,54.70
2023-07-24T09:28:57.947Z,54.90
2023-07-24T09:31:35.897Z,53.50
2023-07-24T09:34:04.576Z,51.50
2023-07-24T09:36:39.323Z,49.40
2023-07-24T09:39:09.332Z,47.90
2023-07-24T09:41:38.751Z,46.70
2023-07-24T09:44:06.909Z,46.00
2023-07-24T09:49:13.708Z,48.30
2023-07-24T09:51:41.852Z,49.80
2023-07-24T09:54:15.071Z,51.10
2023-07-24T09:56:51.974Z,52.10
2023-07-24T09:59:23.690Z,52.60
2023-07-24T10:01:52.921Z,53.10
2023-07-24T10:04:21.406Z,53.00
2023-07-24T10:06:49.431Z,52.20
2023-07-24T10:09:20.239Z,52.10
2023-07-24T10:11:49.552Z,52.60
2023-07-24T10:14:17.925Z,53.10
2023-07-24T10:16:46.803Z,54.10
2023-07-24T10:19:16.115Z,54.00
2023-07-24T10:21:46.737Z,53.70
2023-07-24T10:24:21.535Z,53.70
2023-07-24T10:26:58.531Z,53.40
2023-07-24T10:29:26.907Z,50.60
2023-07-24T10:31:55.347Z,48.80
2023-07-24T10:34:23.364Z,48.90
2023-07-24T10:36:51.218Z,50.60
2023-07-24T10:39:20.587Z,51.60
2023-07-24T10:41:48.657Z,52.50
2023-07-24T10:44:17.918Z,53.50
2023-07-24T10:46:45.813Z,54.80
2023-07-24T10:49:13.804Z,55.80
2023-07-24T10:51:41.703Z,56.00
2023-07-24T10:54:09.563Z,54.90
2023-07-24T10:56:38.619Z,53.80
2023-07-24T10:59:06.638Z,52.10
2023-07-24T11:01:36.390Z,51.10
2023-07-24T11:04:04.749Z,50.80
2023-07-24T11:06:32.700Z,50.30
2023-07-24T11:09:01.402Z,48.90
2023-07-24T11:11:33.011Z,47.00
2023-07-24T11:14:02.512Z,47.00
2023-07-24T11:16:32.458Z,45.10
2023-07-24T11:19:01.881Z,43.00
2023-07-24T11:21:30.597Z,41.70
2023-07-24T11:23:59.102Z,42.20
2023-07-24T11:26:27.939Z,43.30
2023-07-24T11:28:56.458Z,45.00
2023-07-24T11:31:24.543Z,46.60
2023-07-24T11:33:53.833Z,46.30
2023-07-24T11:36:24.225Z,45.00
2023-07-24T11:38:52.211Z,44.90
2023-07-24T11:41:20.277Z,45.00
2023-07-24T11:43:48.647Z,44.60
2023-07-24T11:46:24.756Z,44.00
2023-07-24T11:48:54.705Z,44.00
2023-07-24T11:51:25.635Z,45.00
2023-07-24T11:53:53.713Z,46.10
2023-07-24T11:56:23.073Z,44.00
2023-07-24T11:58:51.009Z,43.20
2023-07-24T12:01:18.944Z,44.20
2023-07-24T12:03:46.960Z,45.00
2023-07-24T12:06:18.017Z,45.80
2023-07-24T12:08:47.320Z,46.60
2023-07-24T12:11:19.016Z,47.20
2023-07-24T12:13:46.914Z,47.50
2023-07-24T12:16:14.974Z,47.80
2023-07-24T12:18:42.926Z,48.10
2023-07-24T12:21:10.859Z,48.30
2023-07-24T12:23:38.756Z,48.50
2023-07-24T12:26:08.450Z,48.70
2023-07-24T12:28:36.375Z,48.80
2023-07-24T12:31:05.464Z,48.90
2023-07-24T12:33:33.471Z,49.20
2023-07-24T12:36:02.745Z,49.20
2023-07-24T12:38:31.311Z,48.90
2023-07-24T12:40:59.326Z,48.50
2023-07-24T12:43:28.571Z,48.40
2023-07-24T12:45:56.465Z,48.10
2023-07-24T12:48:24.342Z,47.80
2023-07-24T12:50:53.134Z,47.30
2023-07-24T12:53:24.162Z,49.60
2023-07-24T12:55:54.205Z,52.00
2023-07-24T12:58:22.158Z,53.10
2023-07-24T13:00:51.676Z,54.40
2023-07-24T13:03:19.734Z,55.10
2023-07-24T13:05:47.675Z,56.10
2023-07-24T13:08:17.100Z,56.90
2023-07-24T13:10:46.300Z,57.40
2023-07-24T13:13:14.182Z,58.40
2023-07-24T13:15:42.077Z,58.40
2023-07-24T13:18:27.070Z,58.40
2023-07-24T13:20:56.575Z,58.40
2023-07-24T13:23:24.614Z,58.50
2023-07-24T13:25:53.878Z,58.50
2023-07-24T13:28:21.861Z,58.40
2023-07-24T13:30:49.786Z,58.30
2023-07-24T13:33:20.250Z,58.30
2023-07-24T13:35:48.204Z,58.30
2023-07-24T13:38:16.297Z,58.30
2023-07-24T13:40:44.191Z,58.00
2023-07-24T13:43:12.087Z,57.50
2023-07-24T13:45:39.993Z,57.00
2023-07-24T13:48:07.928Z,56.00
2023-07-24T13:50:37.202Z,55.10
2023-07-24T13:53:05.115Z,52.10
2023-07-24T13:55:33.100Z,51.30
2023-07-24T13:58:00.973Z,49.90
2023-07-24T14:00:28.905Z,49.30
2023-07-24T14:02:56.871Z,46.80
2023-07-24T14:05:25.239Z,43.80
2023-07-24T14:07:54.508Z,43.30
2023-07-24T14:10:22.599Z,43.20
2023-07-24T14:12:50.513Z,42.60
2023-07-24T14:15:18.444Z,41.80
2023-07-24T14:17:46.489Z,43.20
2023-07-24T14:20:14.374Z,44.40
2023-07-24T14:22:42.298Z,44.60
2023-07-24T14:25:12.902Z,45.40
2023-07-24T14:27:40.822Z,45.20
2023-07-24T14:30:10.941Z,45.50
2023-07-24T14:32:38.890Z,45.20
2023-07-24T14:35:07.286Z,45.10
2023-07-24T14:37:35.235Z,45.40
2023-07-24T14:40:03.704Z,44.90
2023-07-24T14:42:33.050Z,43.90
2023-07-24T14:45:03.502Z,44.10
2023-07-24T14:47:31.665Z,43.50
2023-07-24T14:50:00.033Z,43.50
2023-07-24T14:52:27.919Z,44.00
2023-07-24T14:54:55.849Z,44.10
2023-07-24T14:57:26.120Z,43.50
2023-07-24T14:59:55.818Z,42.20
2023-07-24T15:02:23.715Z,40.80
2023-07-24T15:04:51.694Z,40.20
2023-07-24T15:07:19.664Z,39.70
2023-07-24T15:09:47.581Z,39.90
2023-07-24T15:12:15.503Z,40.80
2023-07-24T15:14:43.560Z,40.80
2023-07-24T15:17:15.765Z,41.70
2023-07-24T15:19:43.805Z,41.60
2023-07-24T15:22:11.708Z,42.00
2023-07-24T15:24:39.723Z,43.00
2023-07-24T15:27:09.788Z,43.90
2023-07-24T15:29:37.824Z,44.60
2023-07-24T15:32:06.891Z,45.00
2023-07-24T15:34:39.178Z,45.20
2023-07-24T15:37:07.882Z,46.00
2023-07-24T15:39:35.761Z,46.40
2023-07-24T15:42:03.704Z,45.50
2023-07-24T15:44:31.598Z,44.90
2023-07-24T15:46:59.536Z,45.80
2023-07-24T15:49:27.449Z,46.70
2023-07-24T15:51:57.157Z,47.30
2023-07-24T15:54:25.045Z,47.70
2023-07-24T15:56:52.972Z,48.20
2023-07-24T15:59:20.877Z,48.80
2023-07-24T16:01:48.791Z,49.50
2023-07-24T16:04:16.687Z,49.90
2023-07-24T16:06:44.780Z,50.10
2023-07-24T16:09:14.131Z,50.50
2023-07-24T16:11:42.056Z,50.70
2023-07-24T16:14:10.164Z,51.10
2023-07-24T16:16:38.092Z,51.60
2023-07-24T16:19:12.200Z,52.00
2023-07-24T16:21:40.110Z,52.40
2023-07-24T16:24:08.068Z,52.90
2023-07-24T16:26:37.615Z,53.10
2023-07-24T16:29:06.062Z,53.90
2023-07-24T16:31:36.118Z,53.90
2023-07-24T16:34:04.924Z,54.10
2023-07-24T16:36:34.078Z,52.90
2023-07-24T16:39:02.160Z,53.40
2023-07-24T16:41:30.053Z,53.20
2023-07-24T16:44:02.115Z,53.60
2023-07-24T16:46:30.580Z,54.20
2023-07-24T16:48:58.583Z,54.70
2023-07-24T16:51:26.543Z,54.80
2023-07-24T16:53:54.478Z,55.40
2023-07-24T16:56:22.376Z,56.10
2023-07-24T16:58:50.753Z,56.40
2023-07-24T17:01:20.152Z,56.80
2023-07-24T17:03:48.123Z,57.00
2023-07-24T17:06:16.086Z,57.20
2023-07-24T17:08:43.971Z,57.10
2023-07-24T17:11:11.869Z,58.00
2023-07-24T17:13:42.030Z,59.30
2023-07-24T17:16:10.462Z,59.50
2023-07-24T17:18:39.741Z,59.10
2023-07-24T17:21:07.703Z,58.80
2023-07-24T17:23:35.634Z,57.60
2023-07-24T17:26:03.765Z,56.70
2023-07-24T17:28:31.661Z,56.80
2023-07-24T17:30:59.681Z,56.90
2023-07-24T17:33:27.641Z,57.50
2023-07-24T17:35:57.054Z,57.30
2023-07-24T17:38:25.006Z,57.50
2023-07-24T17:40:52.892Z,58.10
2023-07-24T17:43:20.961Z,58.30
2023-07-24T17:45:48.888Z,58.20
2023-07-24T17:48:16.812Z,58.40
2023-07-24T17:50:45.644Z,58.50
2023-07-24T17:53:14.953Z,58.60
2023-07-24T17:55:42.853Z,58.60
2023-07-24T17:58:10.758Z,58.90
2023-07-24T18:00:41.591Z,59.00
2023-07-24T18:03:09.613Z,59.20
2023-07-24T18:05:37.617Z,59.40
2023-07-24T18:08:05.783Z,59.60
2023-07-24T18:10:35.083Z,59.80
2023-07-24T18:13:03.798Z,59.80
2023-07-24T18:15:31.733Z,67.50
2023-07-24T18:17:59.698Z,60.30
2023-07-24T18:20:27.659Z,60.70
2023-07-24T18:22:55.566Z,60.60
2023-07-24T18:25:23.582Z,61.30
2023-07-24T18:27:55.597Z,61.60
2023-07-24T18:30:29.517Z,61.30
2023-07-24T18:32:57.561Z,61.40
2023-07-24T18:35:25.738Z,62.00
2023-07-24T18:37:53.967Z,62.10
2023-07-24T18:40:21.858Z,62.30
2023-07-24T18:42:50.388Z,62.30
2023-07-24T18:45:19.757Z,61.90
2023-07-24T18:47:47.719Z,62.00
2023-07-24T18:50:15.700Z,62.10
2023-07-24T18:52:43.632Z,62.20
2023-07-24T18:55:11.578Z,62.20
2023-07-24T18:57:39.661Z,62.20
2023-07-24T19:00:08.167Z,62.30
2023-07-24T19:02:37.467Z,62.40
2023-07-24T19:05:05.685Z,62.40
2023-07-24T19:07:33.706Z,62.40
2023-07-24T19:10:01.602Z,62.60
2023-07-24T19:12:29.716Z,62.50
2023-07-24T19:14:57.654Z,62.60
2023-07-24T19:17:25.761Z,62.70
2023-07-24T19:19:55.020Z,62.70
2023-07-24T19:22:22.927Z,62.60
2023-07-24T19:24:50.956Z,62.80
2023-07-24T19:27:18.920Z,62.70
2023-07-24T19:29:47.002Z,63.20
2023-07-24T19:32:14.932Z,62.60
2023-07-24T19:34:44.353Z,62.70
2023-07-24T19:37:13.716Z,62.70
2023-07-24T19:39:41.716Z,62.70
2023-07-24T19:42:12.015Z,62.70
2023-07-24T19:44:40.221Z,62.80
2023-07-24T19:47:08.177Z,62.90
2023-07-24T19:49:40.211Z,62.90
2023-07-24T19:52:08.464Z,63.00
2023-07-24T19:54:37.757Z,63.10
2023-07-24T19:57:06.052Z,63.10
2023-07-24T19:59:33.952Z,63.10
2023-07-24T20:02:02.422Z,63.10
2023-07-24T20:04:30.352Z,63.10
2023-07-24T20:06:58.209Z,63.10
2023-07-24T20:09:26.365Z,63.10
2023-07-24T20:11:55.729Z,63.10
2023-07-24T20:14:23.895Z,63.10
2023-07-24T20:16:51.888Z,63.10
2023-07-24T20:19:20.031Z,63.10
2023-07-24T20:21:47.950Z,63.00
2023-07-24T20:24:15.943Z,63.10
2023-07-24T20:26:43.872Z,63.00
2023-07-24T20:29:13.129Z,63.00
2023-07-24T20:31:41.074Z,63.10
2023-07-24T20:34:09.023Z,63.00
2023-07-24T20:36:37.803Z,63.00
2023-07-24T20:39:05.684Z,63.00
2023-07-24T20:41:34.755Z,63.00
2023-07-24T20:44:03.890Z,63.00
2023-07-24T20:46:35.255Z,63.00
2023-07-24T20:49:03.201Z,63.00
2023-07-24T20:51:31.302Z,62.80
2023-07-24T20:53:59.909Z,61.90
2023-07-24T20:56:28.000Z,63.20
2023-07-24T20:58:55.887Z,63.60
2023-07-24T21:01:24.412Z,63.60
2023-07-24T21:03:54.234Z,63.60
2023-07-24T21:06:22.149Z,63.60
2023-07-24T21:08:50.051Z,63.60
2023-07-24T21:11:18.113Z,63.60
2023-07-24T21:13:46.050Z,63.60
2023-07-24T21:16:13.950Z,63.60
2023-07-24T21:18:41.858Z,63.70
2023-07-24T21:21:11.720Z,63.50
2023-07-24T21:23:39.639Z,63.60
2023-07-24T21:26:07.535Z,63.50
2023-07-24T21:28:35.453Z,63.50
2023-07-24T21:31:08.515Z,63.70
2023-07-24T21:33:36.515Z,63.60
2023-07-24T21:36:04.717Z,63.50
2023-07-24T21:38:34.167Z,63.60
2023-07-24T21:41:02.080Z,63.50
2023-07-24T21:43:29.993Z,63.40
2023-07-24T21:45:57.925Z,63.50
2023-07-24T21:48:25.841Z,63.50
2023-07-24T21:50:54.140Z,63.50
2023-07-24T21:53:22.346Z,63.50
2023-07-24T21:55:51.720Z,63.50
2023-07-24T21:58:19.771Z,63.40
2023-07-24T22:00:47.753Z,63.50
2023-07-24T22:03:15.682Z,63.40
2023-07-24T22:05:43.860Z,63.40
2023-07-24T22:08:11.784Z,63.50
2023-07-24T22:10:39.729Z,63.50
2023-07-24T22:13:08.997Z,63.60
2023-07-24T22:15:36.971Z,63.50
2023-07-24T22:18:05.008Z,63.50
2023-07-24T22:20:40.557Z,63.50
2023-07-24T22:23:09.369Z,63.60
2023-07-24T22:25:37.301Z,63.60
2023-07-24T22:28:05.424Z,63.50
2023-07-24T22:30:34.726Z,63.60
2023-07-24T22:33:02.996Z,63.50
2023-07-24T22:35:30.995Z,63.50
2023-07-24T22:37:58.942Z,63.50
2023-07-24T22:40:29.200Z,63.50
2023-07-24T22:42:57.153Z,63.50
2023-07-24T22:45:25.032Z,63.40
2023-07-24T22:47:54.375Z,63.50
2023-07-24T22:50:22.657Z,63.50
2023-07-24T22:52:50.583Z,63.40
2023-07-24T22:55:19.763Z,63.40
2023-07-24T22:57:47.717Z,63.50
2023-07-24T23:00:15.689Z,63.50
2023-07-24T23:02:43.697Z,63.40
2023-07-24T23:05:14.221Z,63.40
2023-07-24T23:07:42.167Z,63.40
2023-07-24T23:10:10.408Z,63.40
2023-07-24T23:12:38.338Z,63.40
2023-07-24T23:15:06.479Z,63.40
2023-07-24T23:17:34.406Z,63.40
2023-07-24T23:20:02.359Z,63.30
2023-07-24T23:22:31.635Z,63.30
2023-07-24T23:24:59.586Z,63.30
2023-07-24T23:27:27.562Z,63.30
2023-07-24T23:29:55.472Z,63.30
2023-07-24T23:32:23.413Z,63.30
2023-07-24T23:34:51.347Z,63.30
2023-07-24T23:37:19.257Z,63.30
2023-07-24T23:39:48.561Z,63.30
2023-07-24T23:42:16.441Z,63.30
2023-07-24T23:44:44.364Z,63.20
2023-07-24T23:47:12.717Z,63.30
2023-07-24T23:49:40.658Z,63.30
2023-07-24T23:52:09.383Z,63.30
2023-07-24T23:54:37.325Z,63.30
2023-07-24T23:57:06.968Z,63.30
2023-07-24T23:59:34.926Z,63.30
